Time;durP1;ratioP1;P1;durP2;ratioP2;P2;SDS_P1;SDS_P2;PMS_P1;PMS_P2;Temp;Humidity;BMP_temperature;BMP_pressure;BME280_temperature;BME280_humidity;BME280_pressure;Samples;Min_cycle;Max_cycle;Signal;HPM_P1;HPM_P2
2023/09/02 00:02:22;;;;;;;8.60;5.30;;;12.60;99.90;;;;;;5061335;28;20875;-87
2023/09/02 00:04:48;;;;;;;8.50;5.75;;;12.60;99.90;;;;;;5078203;28;20024;-86
2023/09/02 00:07:13;;;;;;;15.57;5.15;;;12.60;99.90;;;;;;5061258;28;20040;-86
2023/09/02 00:09:39;;;;;;;8.55;5.03;;;12.60;99.90;;;;;;5068275;28;20032;-87
2023/09/02 00:12:06;;;;;;;9.68;6.22;;;12.50;99.90;;;;;;5065207;28;20443;-86
2023/09/02 00:14:32;;;;;;;9.73;6.22;;;12.70;99.90;;;;;;5061014;28;20046;-86
2023/09/02 00:17:26;;;;;;;13.70;6.85;;;12.70;99.90;;;;;;5060857;28;20032;-87
2023/09/02 00:19:52;;;;;;;10.90;5.85;;;12.60;99.90;;;;;;5077441;28;20024;-86
2023/09/02 00:22:17;;;;;;;7.55;5.10;;;12.60;99.90;;;;;;5077444;28;20035;-86
2023/09/02 00:24:43;;;;;;;10.40;5.78;;;12.60;99.90;;;;;;5061088;28;20039;-86
2023/09/02 00:27:09;;;;;;;10.48;5.65;;;12.50;99.90;;;;;;5060932;28;20032;-86
2023/09/02 00:29:38;;;;;;;12.90;5.78;;;12.50;99.90;;;;;;5060898;28;20122;-86
2023/09/02 00:32:04;;;;;;;15.68;5.93;;;12.50;99.90;;;;;;5060354;28;20028;-87
2023/09/02 00:34:29;;;;;;;12.68;6.78;;;12.40;99.90;;;;;;5060503;28;20730;-86
2023/09/02 00:36:55;;;;;;;8.30;5.75;;;12.40;99.90;;;;;;5077342;28;20028;-87
2023/09/02 00:39:21;;;;;;;10.30;5.93;;;12.30;99.90;;;;;;5076914;28;20032;-86
2023/09/02 00:41:55;;;;;;;12.23;5.93;;;12.40;99.90;;;;;;5060781;28;20382;-86
2023/09/02 00:44:21;;;;;;;9.25;5.78;;;12.30;99.90;;;;;;5077246;28;20032;-86
2023/09/02 00:46:46;;;;;;;13.93;5.38;;;12.30;99.90;;;;;;5060328;28;20126;-87
2023/09/02 00:49:12;;;;;;;11.85;5.85;;;12.20;99.90;;;;;;5060456;28;20051;-87
2023/09/02 00:51:44;;;;;;;7.43;5.40;;;12.20;99.90;;;;;;5060290;28;20133;-86
2023/09/02 00:54:10;;;;;;;10.68;6.35;;;12.20;99.90;;;;;;5060172;28;20479;-86
2023/09/02 00:56:37;;;;;;;10.23;5.50;;;12.20;99.90;;;;;;5059788;28;20024;-87
2023/09/02 00:59:04;;;;;;;12.07;6.35;;;12.10;99.90;;;;;;5060452;28;20486;-86
2023/09/02 01:01:33;;;;;;;9.15;4.97;;;12.10;99.90;;;;;;5060721;28;20035;-87
2023/09/02 01:04:01;;;;;;;12.63;6.03;;;12.10;99.90;;;;;;5060339;28;20036;-86
2023/09/02 01:06:27;;;;;;;7.25;4.85;;;12.10;99.90;;;;;;5076848;28;20043;-86
2023/09/02 01:08:54;;;;;;;9.10;5.32;;;12.00;99.90;;;;;;5060542;28;20387;-87
2023/09/02 01:11:19;;;;;;;12.32;5.15;;;12.10;99.90;;;;;;5076491;28;20144;-86
2023/09/02 01:13:45;;;;;;;12.27;8.90;;;12.10;99.90;;;;;;5059971;28;20447;-86
2023/09/02 01:16:11;;;;;;;20.83;10.85;;;12.00;99.90;;;;;;5060269;28;20119;-86
2023/09/02 01:18:38;;;;;;;12.40;7.40;;;12.10;99.90;;;;;;5059686;28;20044;-86
2023/09/02 01:21:18;;;;;;;11.05;5.93;;;12.00;99.90;;;;;;5076552;28;20028;-86
2023/09/02 01:24:29;;;;;;;9.15;6.68;;;12.10;99.90;;;;;;5060035;28;20028;-86
2023/09/02 01:27:18;;;;;;;11.90;6.20;;;12.10;99.90;;;;;;5055944;28;20040;-86
2023/09/02 01:30:10;;;;;;;10.48;5.85;;;12.20;99.90;;;;;;5094228;28;20032;-86
2023/09/02 01:32:41;;;;;;;10.27;7.20;;;12.10;99.90;;;;;;5076164;28;20024;-86
2023/09/02 01:35:08;;;;;;;12.70;6.03;;;12.10;99.90;;;;;;5059865;28;20031;-87
2023/09/02 01:37:43;;;;;;;12.65;6.18;;;12.10;99.90;;;;;;5076113;28;20027;-87
2023/09/02 01:40:14;;;;;;;11.60;5.55;;;12.10;99.90;;;;;;5076286;28;20036;-86
2023/09/02 01:42:40;;;;;;;9.13;6.05;;;12.20;99.90;;;;;;5075293;28;20028;-86
2023/09/02 01:45:07;;;;;;;14.18;6.45;;;12.10;99.90;;;;;;5075339;28;20027;-86
2023/09/02 01:47:43;;;;;;;8.80;5.43;;;11.90;99.90;;;;;;5059334;28;20040;-86
2023/09/02 01:50:11;;;;;;;8.63;6.35;;;11.90;99.90;;;;;;5059136;28;20043;-86
2023/09/02 01:52:38;;;;;;;13.02;6.40;;;11.90;99.90;;;;;;5075842;28;20059;-87
2023/09/02 01:55:05;;;;;;;7.63;5.45;;;11.90;99.90;;;;;;5075682;28;20016;-86
2023/09/02 01:57:32;;;;;;;11.93;6.78;;;11.80;99.90;;;;;;5059001;28;20036;-86
2023/09/02 01:59:58;;;;;;;15.00;6.88;;;11.90;99.90;;;;;;5075499;28;20123;-86
2023/09/02 02:02:24;;;;;;;14.35;7.22;;;11.90;99.90;;;;;;5058639;28;20101;-87
2023/09/02 02:04:55;;;;;;;14.65;6.80;;;11.80;99.90;;;;;;5059067;28;20712;-86
2023/09/02 02:07:24;;;;;;;;;;;11.90;99.90;;;;;;5059040;28;20047;-86
2023/09/02 02:09:56;;;;;;;11.27;7.10;;;11.90;99.90;;;;;;5058734;28;19904;-87
2023/09/02 02:12:22;;;;;;;8.80;5.78;;;11.90;99.90;;;;;;5058392;28;20114;-86
2023/09/02 02:14:48;;;;;;;9.27;6.22;;;11.90;99.90;;;;;;5058640;28;20077;-87
2023/09/02 02:17:16;;;;;;;9.70;5.88;;;11.90;99.90;;;;;;5058509;28;20024;-87
2023/09/02 02:19:44;;;;;;;13.98;6.28;;;11.80;99.90;;;;;;5058615;28;20027;-87
2023/09/02 02:22:10;;;;;;;9.52;6.05;;;11.80;99.90;;;;;;5075221;28;20032;-86
2023/09/02 02:24:36;;;;;;;13.40;6.93;;;11.80;99.90;;;;;;5058748;28;20737;-87
2023/09/02 02:27:02;;;;;;;11.75;6.13;;;11.80;99.90;;;;;;5058631;28;20032;-87
2023/09/02 02:29:28;;;;;;;17.15;6.55;;;11.80;99.90;;;;;;5075526;28;20123;-86
2023/09/02 02:32:12;;;;;;;8.45;5.80;;;11.80;99.90;;;;;;5075213;28;20419;-86
2023/09/02 02:34:38;;;;;;;14.55;5.95;;;11.80;99.90;;;;;;5074553;28;20024;-87
2023/09/02 02:37:04;;;;;;;11.00;7.13;;;11.70;99.90;;;;;;5058297;28;20118;-87
2023/09/02 02:39:30;;;;;;;18.80;6.22;;;11.70;99.90;;;;;;5074380;28;20043;-87
2023/09/02 02:41:55;;;;;;;9.75;5.75;;;11.60;99.90;;;;;;5057585;28;20028;-87
2023/09/02 02:44:58;;;;;;;11.35;5.53;;;11.60;99.90;;;;;;5074689;28;20399;-87
2023/09/02 02:47:24;;;;;;;9.68;5.80;;;11.60;99.90;;;;;;5058499;28;20031;-87
2023/09/02 02:49:50;;;;;;;11.23;6.20;;;11.60;99.90;;;;;;5058634;28;20020;-86
2023/09/02 02:52:16;;;;;;;8.25;5.50;;;11.60;99.90;;;;;;5074301;28;20082;-87
2023/09/02 02:55:00;;;;;;;10.70;6.60;;;11.70;99.90;;;;;;5074805;28;20127;-86
2023/09/02 02:57:41;;;;;;;13.60;6.05;;;11.70;99.90;;;;;;5075010;28;20040;-87
2023/09/02 03:00:50;;;;;;;10.13;6.43;;;11.80;99.90;;;;;;5058374;28;20055;-86
2023/09/02 03:03:19;;;;;;;10.15;6.72;;;11.80;99.90;;;;;;5075753;28;20031;-87
2023/09/02 03:05:46;;;;;;;15.93;6.07;;;11.70;99.90;;;;;;5075156;28;20483;-87
2023/09/02 03:08:12;;;;;;;9.95;5.70;;;11.60;99.90;;;;;;5075213;28;20081;-87
2023/09/02 03:10:57;;;;;;;13.77;6.43;;;11.60;99.90;;;;;;5058264;28;20046;-87
2023/09/02 03:13:24;;;;;;;10.75;6.38;;;11.60;99.90;;;;;;5066558;28;20024;-87
2023/09/02 03:15:53;;;;;;;11.65;6.53;;;11.60;99.90;;;;;;5062507;28;20142;-88
2023/09/02 03:18:19;;;;;;;9.68;5.95;;;11.60;99.90;;;;;;5075238;28;20395;-87
2023/09/02 03:20:45;;;;;;;9.35;5.90;;;11.60;99.90;;;;;;5058412;28;20024;-87
2023/09/02 03:23:12;;;;;;;8.73;6.25;;;11.60;99.90;;;;;;5058621;28;20051;-87
2023/09/02 03:25:37;;;;;;;11.85;6.32;;;11.50;99.90;;;;;;5057488;28;20024;-87
2023/09/02 03:28:05;;;;;;;11.27;5.90;;;11.60;99.90;;;;;;5058256;28;20028;-87
2023/09/02 03:30:31;;;;;;;9.93;6.45;;;11.50;99.90;;;;;;5057981;28;20081;-87
2023/09/02 03:32:58;;;;;;;11.38;6.40;;;11.50;99.90;;;;;;5058042;28;20025;-87
2023/09/02 03:35:24;;;;;;;12.10;7.20;;;11.40;99.90;;;;;;5058257;28;20078;-87
2023/09/02 03:37:50;;;;;;;10.07;6.95;;;11.50;99.90;;;;;;5058398;28;20036;-87
2023/09/02 03:40:17;;;;;;;14.93;6.63;;;11.50;99.90;;;;;;5058428;28;20045;-87
2023/09/02 03:42:43;;;;;;;12.07;6.60;;;11.60;99.90;;;;;;5074738;28;20028;-87
2023/09/02 03:45:09;;;;;;;12.30;7.20;;;11.70;99.90;;;;;;5058819;28;20693;-87
2023/09/02 03:47:36;;;;;;;10.63;7.18;;;11.80;99.90;;;;;;5059028;28;20572;-87
2023/09/02 03:50:05;;;;;;;10.98;7.40;;;11.90;99.90;;;;;;5058472;28;20047;-87
2023/09/02 03:52:31;;;;;;;10.52;6.43;;;12.10;99.90;;;;;;5074797;28;20025;-87
2023/09/02 03:54:58;;;;;;;10.05;6.88;;;12.20;99.90;;;;;;5074590;28;20123;-87
2023/09/02 03:57:24;;;;;;;14.25;7.53;;;12.30;99.90;;;;;;5075316;28;20476;-87
2023/09/02 03:59:50;;;;;;;10.90;7.50;;;12.40;99.90;;;;;;5075583;28;20028;-87
2023/09/02 04:02:17;;;;;;;10.18;7.03;;;12.50;99.90;;;;;;5058397;28;20104;-87
2023/09/02 04:04:43;;;;;;;10.80;6.50;;;12.60;99.90;;;;;;5075118;28;20732;-87
2023/09/02 04:07:08;;;;;;;11.05;6.05;;;12.70;99.90;;;;;;5060241;28;20078;-87
2023/09/02 04:09:34;;;;;;;8.32;5.40;;;12.80;99.90;;;;;;5061958;28;20028;-86
2023/09/02 04:12:00;;;;;;;8.25;5.53;;;12.80;99.90;;;;;;5078597;28;20024;-87
2023/09/02 04:14:26;;;;;;;6.60;5.22;;;12.90;99.90;;;;;;5078180;28;20016;-87
2023/09/02 04:17:48;;;;;;;7.32;4.95;;;12.90;99.90;;;;;;5077998;28;20043;-87
2023/09/02 04:20:34;;;;;;;;;;;12.90;99.90;;;;;;5061666;28;20046;-87
2023/09/02 04:23:01;;;;;;;7.55;5.43;;;12.90;99.90;;;;;;5062288;28;19908;-87
2023/09/02 04:25:27;;;;;;;8.57;5.88;;;12.80;99.90;;;;;;5061995;28;20161;-87
2023/09/02 04:27:53;;;;;;;9.77;5.63;;;12.80;99.90;;;;;;5078619;28;20386;-87
2023/09/02 04:30:18;;;;;;;12.40;6.07;;;12.80;99.90;;;;;;5078486;28;20024;-87
2023/09/02 04:32:49;;;;;;;9.32;5.90;;;12.80;99.90;;;;;;5077588;28;20024;-87
2023/09/02 04:35:15;;;;;;;11.23;6.45;;;12.80;99.90;;;;;;5061480;28;20028;-87
2023/09/02 04:37:42;;;;;;;8.07;6.25;;;12.80;99.90;;;;;;5077550;28;20028;-87
2023/09/02 04:40:09;;;;;;;13.30;6.97;;;12.70;99.90;;;;;;5061400;28;20059;-87
2023/09/02 04:42:35;;;;;;;9.20;6.50;;;12.60;99.90;;;;;;5078624;28;20032;-88
2023/09/02 04:45:01;;;;;;;12.00;6.10;;;12.70;99.90;;;;;;5062316;28;20028;-88
2023/09/02 04:47:27;;;;;;;15.98;7.03;;;12.60;99.90;;;;;;5078746;28;20530;-89
2023/09/02 04:49:53;;;;;;;9.93;8.07;;;12.70;99.90;;;;;;5061685;28;20119;-88
2023/09/02 04:52:19;;;;;;;8.32;6.53;;;12.70;99.90;;;;;;5061758;28;20035;-89
2023/09/02 04:54:45;;;;;;;9.82;6.65;;;12.70;99.90;;;;;;5058231;28;20020;-89
2023/09/02 04:57:11;;;;;;;8.50;6.70;;;12.90;99.90;;;;;;5061864;28;20028;-89
2023/09/02 04:59:38;;;;;;;9.88;6.85;;;12.90;99.90;;;;;;5062010;28;20074;-88
2023/09/02 05:02:05;;;;;;;8.30;6.50;;;13.00;99.90;;;;;;5061690;28;20036;-88
2023/09/02 05:04:31;;;;;;;8.23;6.68;;;13.10;99.90;;;;;;5061512;28;20720;-89
2023/09/02 05:06:57;;;;;;;19.80;6.60;;;13.10;99.90;;;;;;5061889;28;20035;-89
2023/09/02 05:09:23;;;;;;;17.95;7.28;;;13.10;99.90;;;;;;5061033;28;20035;-88
2023/09/02 05:11:48;;;;;;;10.75;6.10;;;13.20;99.90;;;;;;5077799;28;20024;-89
2023/09/02 05:14:14;;;;;;;8.95;6.40;;;13.30;99.90;;;;;;5061111;28;20028;-88
2023/09/02 05:16:41;;;;;;;13.85;6.93;;;13.30;99.90;;;;;;5061266;28;20059;-89
2023/09/02 05:19:08;;;;;;;10.55;7.57;;;13.40;99.90;;;;;;5060111;28;20043;-89
2023/09/02 05:21:33;;;;;;;9.88;7.45;;;13.50;99.90;;;;;;5060789;28;20126;-89
2023/09/02 05:23:59;;;;;;;10.35;7.18;;;13.60;99.90;;;;;;5077979;28;20032;-89
2023/09/02 05:26:25;;;;;;;10.25;5.93;;;13.70;99.90;;;;;;5060892;28;20036;-88
2023/09/02 05:28:51;;;;;;;14.02;6.93;;;13.80;99.90;;;;;;5060648;28;20035;-87
2023/09/02 05:31:16;;;;;;;12.70;7.00;;;13.80;99.90;;;;;;5077212;28;20530;-89
2023/09/02 05:34:07;;;;;;;13.88;6.97;;;13.90;99.90;;;;;;5060743;28;20034;-88
2023/09/02 05:36:33;;;;;;;10.50;6.57;;;13.90;99.90;;;;;;5061097;28;20036;-88
2023/09/02 05:39:17;;;;;;;10.75;7.65;;;14.00;99.90;;;;;;5095221;28;20369;-88
2023/09/02 05:41:45;;;;;;;13.38;7.80;;;14.10;99.90;;;;;;5077491;28;20109;-88
2023/09/02 05:44:11;;;;;;;14.25;7.45;;;14.20;99.90;;;;;;5060687;28;20123;-88
2023/09/02 05:46:36;;;;;;;12.27;7.28;;;14.20;99.90;;;;;;5060791;28;20115;-88
2023/09/02 05:49:03;;;;;;;12.88;6.53;;;14.30;99.90;;;;;;5077452;28;20427;-88
2023/09/02 05:51:29;;;;;;;11.13;7.25;;;14.40;99.90;;;;;;5077071;28;20027;-88
2023/09/02 05:53:55;;;;;;;9.93;6.93;;;14.30;99.90;;;;;;5059998;28;20040;-88
2023/09/02 05:56:58;;;;;;;9.30;6.70;;;14.30;99.90;;;;;;5074108;28;20032;-88
2023/09/02 05:59:23;;;;;;;9.48;7.32;;;14.40;99.90;;;;;;5076718;28;20038;-88
2023/09/02 06:01:50;;;;;;;10.93;6.57;;;14.40;99.90;;;;;;5060650;28;20111;-88
2023/09/02 06:04:16;;;;;;;11.68;6.63;;;14.40;99.90;;;;;;5075968;28;20502;-88
2023/09/02 06:06:42;;;;;;;11.60;7.20;;;14.60;99.90;;;;;;5077146;28;20067;-88
2023/09/02 06:09:09;;;;;;;10.32;6.45;;;14.70;99.90;;;;;;5060097;28;20123;-88
2023/09/02 06:11:35;;;;;;;9.15;6.25;;;14.80;99.90;;;;;;5076600;28;20032;-88
2023/09/02 06:14:04;;;;;;;13.30;7.10;;;15.00;99.90;;;;;;5059972;28;20379;-88
2023/09/02 06:16:30;;;;;;;8.85;7.00;;;15.20;99.90;;;;;;5059781;28;20036;-88
2023/09/02 06:18:55;;;;;;;10.15;7.53;;;15.40;99.90;;;;;;5060002;28;20039;-87
2023/09/02 06:21:30;;;;;;;9.73;6.78;;;15.60;99.90;;;;;;5060110;28;20063;-88
2023/09/02 06:23:56;;;;;;;9.98;7.10;;;15.80;99.90;;;;;;5059350;28;20047;-88
2023/09/02 06:26:23;;;;;;;9.10;7.15;;;15.90;99.90;;;;;;5059970;28;20024;-88
2023/09/02 06:28:48;;;;;;;10.88;7.15;;;16.10;99.90;;;;;;5076689;28;20071;-88
2023/09/02 06:31:14;;;;;;;12.00;8.18;;;16.20;99.90;;;;;;5065094;28;20016;-89
2023/09/02 06:33:40;;;;;;;8.38;7.28;;;16.40;99.90;;;;;;5099534;28;20020;-88
2023/09/02 06:36:10;;;;;;;10.38;7.07;;;16.50;99.90;;;;;;5059793;28;20032;-88
2023/09/02 06:38:36;;;;;;;9.68;6.78;;;16.60;99.90;;;;;;5059645;28;20440;-88
2023/09/02 06:41:09;;;;;;;7.85;5.88;;;16.60;99.90;;;;;;5059072;28;20063;-89
2023/09/02 06:43:35;;;;;;;6.70;5.80;;;16.80;99.90;;;;;;5075511;28;20437;-88
2023/09/02 06:46:17;;;;;;;11.95;6.40;;;16.90;99.90;;;;;;5059325;28;20028;-88
2023/09/02 06:48:44;;;;;;;10.30;6.28;;;16.90;99.90;;;;;;5058587;28;20032;-88
2023/09/02 06:51:09;;;;;;;10.38;5.35;;;17.00;99.90;;;;;;5059737;28;20028;-87
2023/09/02 06:53:35;;;;;;;11.95;5.78;;;17.10;99.90;;;;;;5075046;28;20039;-88
2023/09/02 06:56:05;;;;;;;7.88;4.57;;;17.10;99.90;;;;;;5059071;28;20024;-88
2023/09/02 06:58:30;;;;;;;9.38;3.70;;;17.00;99.90;;;;;;5059897;28;20151;-88
2023/09/02 07:00:56;;;;;;;4.60;3.50;;;16.90;99.90;;;;;;5059346;28;20505;-88
2023/09/02 07:03:22;;;;;;;4.78;3.67;;;17.00;99.90;;;;;;5076297;28;20483;-88
2023/09/02 07:05:48;;;;;;;6.80;3.58;;;16.90;99.90;;;;;;5076328;28;20102;-88
2023/09/02 07:08:13;;;;;;;3.42;2.92;;;16.90;99.90;;;;;;5060358;28;20040;-88
2023/09/02 07:10:39;;;;;;;4.18;2.47;;;17.00;99.90;;;;;;5077476;28;20505;-88
2023/09/02 07:13:05;;;;;;;3.00;1.92;;;17.10;99.90;;;;;;5060741;28;20028;-88
2023/09/02 07:15:35;;;;;;;2.17;1.98;;;17.20;99.90;;;;;;5060707;28;20035;-88
2023/09/02 07:18:04;;;;;;;3.50;1.58;;;17.50;99.90;;;;;;5077451;28;20051;-89
2023/09/02 07:20:30;;;;;;;2.70;1.58;;;17.80;99.90;;;;;;5060022;28;20770;-89
2023/09/02 07:22:55;;;;;;;5.28;1.52;;;18.10;99.90;;;;;;5059321;28;20036;-89
2023/09/02 07:25:21;;;;;;;1.20;1.00;;;18.30;99.90;;;;;;5075984;28;20538;-88
2023/09/02 07:27:48;;;;;;;1.27;1.00;;;18.50;99.90;;;;;;5059835;28;20024;-88
2023/09/02 07:30:14;;;;;;;2.47;0.90;;;19.00;99.90;;;;;;5058814;28;20123;-88
2023/09/02 07:32:39;;;;;;;1.85;1.13;;;19.30;99.90;;;;;;5058911;28;20028;-87
2023/09/02 07:35:05;;;;;;;1.70;1.00;;;19.60;99.90;;;;;;5058723;28;20103;-87
2023/09/02 07:37:43;;;;;;;3.25;1.73;;;19.90;99.90;;;;;;5075788;28;20426;-91
2023/09/02 07:40:10;;;;;;;2.30;1.13;;;20.00;99.90;;;;;;5075609;28;20079;-87
2023/09/02 07:42:35;;;;;;;6.15;1.45;;;20.00;99.90;;;;;;5045192;28;20040;-87
2023/09/02 07:45:01;;;;;;;6.07;1.63;;;19.80;99.90;;;;;;5063106;28;20082;-87
2023/09/02 07:47:27;;;;;;;5.95;1.30;;;19.50;99.90;;;;;;5062661;28;20039;-87
2023/09/02 07:49:54;;;;;;;2.63;1.38;;;19.30;99.90;;;;;;5078971;28;20028;-86
2023/09/02 07:52:19;;;;;;;1.92;1.42;;;19.30;99.90;;;;;;5062504;28;20498;-86
2023/09/02 07:54:45;;;;;;;2.60;1.40;;;19.20;99.90;;;;;;5062638;28;20028;-87
2023/09/02 07:57:11;;;;;;;2.00;1.10;;;19.20;99.90;;;;;;5062624;28;20036;-87
2023/09/02 07:59:36;;;;;;;7.93;3.33;;;19.20;99.90;;;;;;5062278;28;20035;-86
2023/09/02 08:02:02;;;;;;;3.40;1.38;;;19.20;99.90;;;;;;5078480;28;20047;-87
2023/09/02 08:04:28;;;;;;;4.40;2.15;;;19.30;99.90;;;;;;5078421;28;20035;-87
2023/09/02 08:06:54;;;;;;;5.88;1.33;;;19.30;99.90;;;;;;5061452;28;20138;-87
2023/09/02 08:09:19;;;;;;;4.05;1.40;;;19.40;99.90;;;;;;5062081;28;20587;-87
2023/09/02 08:11:45;;;;;;;4.22;1.25;;;19.40;99.90;;;;;;5061901;28;20031;-88
2023/09/02 08:14:11;;;;;;;2.72;1.20;;;19.50;99.90;;;;;;5078828;28;20082;-88
2023/09/02 08:16:37;;;;;;;1.48;0.93;;;19.50;99.90;;;;;;5061471;28;20131;-87
2023/09/02 08:19:02;;;;;;;3.13;1.00;;;19.50;99.90;;;;;;5079332;28;20064;-87
2023/09/02 08:21:28;;;;;;;2.70;0.95;;;19.60;99.90;;;;;;5061013;28;20502;-87
2023/09/02 08:23:54;;;;;;;2.35;1.13;;;19.70;99.90;;;;;;5079707;28;20024;-87
2023/09/02 08:26:19;;;;;;;2.78;0.85;;;19.80;99.90;;;;;;5078919;28;20032;-87
2023/09/02 08:28:45;;;;;;;5.82;1.00;;;19.90;99.90;;;;;;5077925;28;20110;-89
2023/09/02 08:31:17;;;;;;;1.38;0.90;;;19.90;99.90;;;;;;5061736;28;20031;-88
2023/09/02 08:33:43;;;;;;;3.55;1.55;;;20.00;99.90;;;;;;5062250;28;20039;-88
2023/09/02 08:36:16;;;;;;;2.58;0.90;;;20.10;99.90;;;;;;5077788;28;20713;-89
2023/09/02 08:38:42;;;;;;;4.05;1.73;;;20.00;99.90;;;;;;5060943;28;20028;-88
2023/09/02 08:41:16;;;;;;;2.60;0.90;;;20.10;99.90;;;;;;5077786;28;20069;-89
2023/09/02 08:43:42;;;;;;;2.05;0.80;;;20.30;99.90;;;;;;5058427;28;20035;-87
2023/09/02 08:46:10;;;;;;;1.73;0.75;;;20.40;99.90;;;;;;5077163;28;20477;-88
2023/09/02 08:48:41;;;;;;;2.75;1.20;;;20.60;99.90;;;;;;5061001;28;20108;-89
2023/09/02 08:51:08;;;;;;;8.10;1.08;;;20.70;99.90;;;;;;5061333;28;20055;-86
2023/09/02 08:53:34;;;;;;;2.78;0.70;;;20.70;99.90;;;;;;5060806;28;20032;-89
2023/09/02 08:56:01;;;;;;;1.88;0.70;;;21.30;99.90;;;;;;5060464;28;20047;-89
2023/09/02 08:58:29;;;;;;;3.03;0.93;;;22.60;99.90;;;;;;5061207;28;20050;-90
2023/09/02 09:00:55;;;;;;;2.35;0.90;;;24.00;99.90;;;;;;5060367;28;20035;-89
2023/09/02 09:03:22;;;;;;;2.10;0.77;;;25.30;99.90;;;;;;5061010;28;20036;-88
2023/09/02 09:05:49;;;;;;;1.15;0.60;;;26.40;99.90;;;;;;5061155;28;20039;-90
2023/09/02 09:08:15;;;;;;;2.03;0.80;;;27.50;99.90;;;;;;5060922;28;20028;-89
2023/09/02 09:10:43;;;;;;;6.00;0.98;;;28.60;99.90;;;;;;5061243;28;20028;-90
2023/09/02 09:13:13;;;;;;;1.00;0.70;;;29.40;99.90;;;;;;5060635;28;20068;-89
2023/09/02 09:15:39;;;;;;;1.98;0.68;;;30.30;99.90;;;;;;5061219;28;20437;-89
2023/09/02 09:18:05;;;;;;;1.48;0.63;;;31.10;99.90;;;;;;5060714;28;20078;-89
2023/09/02 09:20:32;;;;;;;3.17;0.93;;;31.50;99.90;;;;;;5060203;28;20074;-90
2023/09/02 09:22:58;;;;;;;2.40;1.17;;;31.30;99.90;;;;;;5078295;28;20027;-90
2023/09/02 09:25:24;;;;;;;1.67;0.90;;;30.70;99.90;;;;;;5061085;28;20490;-90
2023/09/02 09:27:49;;;;;;;3.08;1.20;;;29.50;99.90;;;;;;5061329;28;20024;-90
2023/09/02 09:30:27;;;;;;;4.90;0.88;;;29.10;99.90;;;;;;5060928;28;20115;-90
2023/09/02 09:33:00;;;;;;;2.03;0.95;;;29.10;99.90;;;;;;5060557;28;20028;-89
2023/09/02 09:35:26;;;;;;;1.52;0.77;;;28.50;99.90;;;;;;5060995;28;20391;-90
2023/09/02 09:37:55;;;;;;;1.38;0.80;;;27.60;99.90;;;;;;5079330;28;20020;-90
2023/09/02 09:40:33;;;;;;;2.15;1.23;;;27.30;99.90;;;;;;5060803;28;20671;-90
2023/09/02 09:43:01;;;;;;;2.38;1.02;;;27.10;99.90;;;;;;5077307;28;20038;-89
2023/09/02 09:45:27;;;;;;;3.40;0.95;;;26.90;99.90;;;;;;5060259;28;20039;-89
2023/09/02 09:47:57;;;;;;;2.42;0.80;;;26.70;99.90;;;;;;5060170;28;20032;-89
2023/09/02 09:50:23;;;;;;;4.60;0.80;;;26.90;99.90;;;;;;5060345;28;20055;-90
2023/09/02 09:53:09;;;;;;;2.25;0.98;;;26.70;99.90;;;;;;5060318;28;20071;-90
2023/09/02 09:55:36;;;;;;;6.00;0.93;;;27.00;99.90;;;;;;5076820;28;20456;-89
2023/09/02 09:58:03;;;;;;;1.92;0.90;;;27.10;99.90;;;;;;5076480;28;20035;-89
2023/09/02 10:00:29;;;;;;;2.90;1.00;;;27.40;99.90;;;;;;5059657;28;20051;-90
2023/09/02 10:02:57;;;;;;;4.40;1.10;;;27.70;99.90;;;;;;5059651;28;20024;-90
2023/09/02 10:05:24;;;;;;;1.83;1.25;;;28.10;99.90;;;;;;5076278;28;20066;-90
2023/09/02 10:08:04;;;;;;;1.23;1.08;;;28.50;99.90;;;;;;5060051;28;20428;-90
2023/09/02 10:10:42;;;;;;;1.15;1.00;;;29.00;99.90;;;;;;5060195;28;20646;-90
2023/09/02 10:13:08;;;;;;;3.80;1.00;;;29.60;99.90;;;;;;5059872;28;20024;-90
2023/09/02 10:15:33;;;;;;;1.92;1.17;;;30.00;99.90;;;;;;5060400;28;20114;-90
2023/09/02 10:18:01;;;;;;;3.42;1.38;;;30.40;99.90;;;;;;5059823;28;20028;-90
2023/09/02 10:20:29;;;;;;;1.73;1.08;;;30.60;99.90;;;;;;5059364;28;20129;-91
2023/09/02 10:23:06;;;;;;;3.20;1.23;;;30.60;99.90;;;;;;5059254;28;20052;-90
2023/09/02 10:26:17;;;;;;;2.65;1.20;;;30.70;99.90;;;;;;5058950;28;20359;-90
2023/09/02 10:28:44;;;;;;;2.20;1.13;;;31.00;99.90;;;;;;5054955;28;20136;-90
2023/09/02 10:31:18;;;;;;;4.22;1.10;;;30.80;99.90;;;;;;5075817;28;20102;-90
2023/09/02 10:34:34;;;;;;;3.22;1.40;;;30.40;99.90;;;;;;5075570;28;20828;-89
2023/09/02 10:37:08;;;;;;;1.90;1.02;;;29.50;99.90;;;;;;5016046;28;20064;-90
2023/09/02 10:39:57;;;;;;;2.30;1.05;;;29.50;99.90;;;;;;5059135;28;20032;-89
2023/09/02 10:42:24;;;;;;;1.45;1.27;;;29.70;99.90;;;;;;5058772;28;20036;-90
2023/09/02 10:44:52;;;;;;;2.80;1.40;;;29.60;99.90;;;;;;5058161;28;20067;-88
2023/09/02 10:47:18;;;;;;;6.30;1.55;;;29.20;99.90;;;;;;5058163;28;20059;-90
2023/09/02 10:49:44;;;;;;;1.85;1.08;;;29.50;99.90;;;;;;5058456;28;20078;-90
2023/09/02 10:52:11;;;;;;;3.53;1.30;;;29.70;99.90;;;;;;5076048;28;20032;-91
2023/09/02 10:55:12;;;;;;;3.00;1.35;;;30.00;99.90;;;;;;5059215;28;20337;-90
2023/09/02 10:57:54;;;;;;;3.38;1.27;;;30.30;99.90;;;;;;4998115;28;20880;-90
2023/09/02 11:00:22;;;;;;;4.57;1.30;;;30.70;99.90;;;;;;5052927;28;20024;-90
2023/09/02 11:02:52;;;;;;;2.03;1.00;;;29.60;99.90;;;;;;5057855;28;20426;-90
2023/09/02 11:05:18;;;;;;;2.88;1.42;;;30.00;99.90;;;;;;5058887;28;20028;-89
2023/09/02 11:07:45;;;;;;;1.73;1.40;;;30.40;99.90;;;;;;5057795;28;20028;-90
2023/09/02 11:10:11;;;;;;;3.95;1.23;;;31.10;99.90;;;;;;5058258;28;20031;-90
2023/09/02 11:12:59;;;;;;;3.60;1.60;;;31.10;99.90;;;;;;5059343;28;20028;-89
2023/09/02 11:15:25;;;;;;;2.33;1.50;;;29.80;99.90;;;;;;5074875;28;20028;-90
2023/09/02 11:17:51;;;;;;;1.73;1.10;;;29.00;99.90;;;;;;5058119;28;20040;-90
2023/09/02 11:20:25;;;;;;;2.13;1.52;;;28.20;99.90;;;;;;5058066;28;20123;-90
2023/09/02 11:22:52;;;;;;;5.05;1.30;;;27.80;99.90;;;;;;5058095;28;20077;-89
2023/09/02 11:25:41;;;;;;;2.83;1.48;;;27.40;99.90;;;;;;5057993;28;20110;-89
2023/09/02 11:28:13;;;;;;;2.22;1.65;;;27.20;99.90;;;;;;5075183;28;20046;-89
2023/09/02 11:30:39;;;;;;;7.30;1.50;;;26.80;99.90;;;;;;5059567;28;20461;-88
2023/09/02 11:33:09;;;;;;;3.72;1.25;;;26.50;99.90;;;;;;5057933;28;20040;-89
2023/09/02 11:35:36;;;;;;;6.38;1.42;;;26.00;99.90;;;;;;5058071;28;20043;-90
2023/09/02 11:38:03;;;;;;;3.90;1.27;;;26.40;99.90;;;;;;5058718;28;20024;-90
2023/09/02 11:40:29;;;;;;;8.35;1.52;;;27.60;99.90;;;;;;5020063;28;1099899;-90
2023/09/02 11:43:00;;;;;;;4.47;1.35;;;27.90;99.90;;;;;;5060000;28;20034;-91
2023/09/02 11:45:27;;;;;;;;;;;28.80;99.90;;;;;;5060060;28;20483;-90
2023/09/02 11:47:53;;;;;;;2.38;1.27;;;29.30;99.90;;;;;;5059469;28;20359;-92
2023/09/02 11:50:21;;;;;;;3.08;1.60;;;29.10;99.90;;;;;;5076293;28;20062;-90
2023/09/02 11:52:48;;;;;;;4.18;1.40;;;29.10;99.90;;;;;;5076138;28;20032;-91
2023/09/02 11:55:16;;;;;;;2.92;1.38;;;29.90;99.90;;;;;;5060213;28;20036;-90
2023/09/02 11:57:42;;;;;;;1.52;1.17;;;30.70;99.90;;;;;;5075766;28;20036;-91
2023/09/02 12:00:13;;;;;;;2.72;1.35;;;31.00;99.90;;;;;;5058810;28;20042;-90
2023/09/02 12:02:39;;;;;;;2.67;1.42;;;31.00;99.90;;;;;;5058854;28;20040;-90
2023/09/02 12:05:05;;;;;;;2.55;1.30;;;30.90;99.90;;;;;;5059110;28;20356;-89
2023/09/02 12:07:37;;;;;;;4.75;1.50;;;30.10;99.90;;;;;;5075763;28;20078;-89
2023/09/02 12:10:11;;;;;;;2.40;1.45;;;30.20;99.90;;;;;;5059379;28;20058;-90
2023/09/02 12:12:44;;;;;;;2.33;1.52;;;30.40;99.90;;;;;;5058811;28;20082;-90
2023/09/02 12:15:32;;;;;;;2.90;1.48;;;30.10;99.90;;;;;;5076907;28;20035;-91
2023/09/02 12:17:58;;;;;;;1.75;1.27;;;29.50;99.90;;;;;;5093816;28;20035;-91
2023/09/02 12:20:25;;;;;;;5.68;1.40;;;30.10;99.90;;;;;;5062373;28;20463;-90
2023/09/02 12:22:51;;;;;;;1.67;1.30;;;30.30;99.90;;;;;;5076336;28;20062;-90
2023/09/02 12:25:22;;;;;;;5.13;1.30;;;29.80;99.90;;;;;;5059381;28;20040;-90
2023/09/02 12:27:49;;;;;;;4.60;1.58;;;29.50;99.90;;;;;;5060416;28;20040;-92
2023/09/02 12:30:26;;;;;;;1.88;1.30;;;29.30;99.90;;;;;;5063092;28;20031;-91
2023/09/02 12:32:58;;;;;;;1.88;1.30;;;28.70;99.90;;;;;;5080313;28;20024;-91
2023/09/02 12:35:24;;;;;;;4.05;1.73;;;28.70;99.90;;;;;;5062622;28;20696;-90
2023/09/02 12:38:08;;;;;;;2.80;1.50;;;29.00;99.90;;;;;;5079105;28;20111;-91
2023/09/02 12:40:53;;;;;;;5.20;1.73;;;28.90;99.90;;;;;;5062925;28;20032;-91
2023/09/02 12:43:28;;;;;;;2.13;1.60;;;29.30;99.90;;;;;;5079619;28;20028;-91
2023/09/02 12:45:56;;;;;;;10.27;2.55;;;28.60;99.90;;;;;;5079935;28;20498;-90
2023/09/02 12:48:22;;;;;;;2.17;1.42;;;27.90;99.90;;;;;;5062712;28;20123;-91
2023/09/02 12:50:48;;;;;;;2.83;1.30;;;27.20;99.90;;;;;;5062391;28;20114;-90
2023/09/02 12:53:13;;;;;;;5.80;1.75;;;27.10;99.90;;;;;;5061530;28;20111;-90
2023/09/02 12:55:41;;;;;;;2.20;1.55;;;26.90;99.90;;;;;;5079033;28;20071;-91